Sunday, September 25, 2016, 1:19 PM EDT

KNHK, Nas Patuxent River Md

Location: Patuxent River, MD, United States Lat: 38.3
Local Time: 1:19 PM EDT (17:19 GMT) Lon: -76.4
Time Zone: US/Eastern Elev: 39 ft

Show me the last for .
Show Decoded

2016-09-25 12:52 METAR KNHK 251652Z 02005KT 10SM SCT055 22/08 A3020 RMK AO2 SLP228 T02170078 $ =
2016-09-25 11:52 METAR KNHK 251552Z 03008KT 10SM FEW055 21/08 A3021 RMK AO2 SLP230 T02060083 $ =
2016-09-25 10:52 METAR KNHK 251452Z 06005KT 10SM FEW200 19/09 A3021 RMK AO2 SLP230 T01940089
                 51004 $ =
2016-09-25 09:52 METAR KNHK 251352Z 04006KT 10SM FEW015 19/09 A3021 RMK AO2 SLP229 T01890094 $ =
2016-09-25 08:52 METAR KNHK 251252Z 04010KT 10SM FEW015 18/09 A3020 RMK AO2 SLP228 T01780094 $ =
2016-09-25 07:52 METAR KNHK 251152Z 04011KT 10SM FEW015 FEW050 17/09 A3020 RMK AO2 SLP226
                 T01670094 10167 20139 53018 $ =
2016-09-25 07:11 METAR KNHK 251111Z 04009KT 10SM FEW015 FEW050 16/11 A3019 RMK AO2 T01560106 $ =
2016-09-25 06:52 METAR KNHK 251052Z AUTO 04010KT 10SM CLR 16/11 A3018 RMK AO2 SLP220 T01560111 $
                 =
2016-09-25 06:26 METAR KNHK 251026Z AUTO 04009KT 10SM SCT022 16/12 A3017 RMK AO2 T01610122 $ =
2016-09-25 06:04 METAR KNHK 251004Z AUTO 00000KT 10SM FEW011 BKN022 BKN029 15/14 A3016 RMK AO2
                 T01500139 $ =
2016-09-25 05:52 METAR KNHK 250952Z AUTO 28004KT 10SM SCT025 BKN036 14/13 A3016 RMK AO2 SLP213
                 T01440133 $ =
2016-09-25 04:52 METAR KNHK 250852Z AUTO 03004KT 10SM CLR 16/13 A3015 RMK AO2 SLP208 T01560128
                 53002 $ =
2016-09-25 03:52 METAR KNHK 250752Z AUTO 05006KT 10SM CLR 15/13 A3013 RMK AO2 SLP204 T01500128 $
                 =
2016-09-25 02:52 METAR KNHK 250652Z AUTO 00000KT 10SM CLR 14/13 A3014 RMK AO2 SLP206 T01440133 $
                 =
2016-09-25 01:52 METAR KNHK 250552Z AUTO 06004KT 10SM CLR 17/14 A3014 RMK AO2 SLP206 T01670139
                 10200 20161 51002 $ =
2016-09-25 00:52 METAR KNHK 250452Z AUTO 07005KT 10SM CLR 18/14 A3014 RMK AO2 SLP205 T01780144
                 402440178 $ =
2016-09-24 23:52 METAR KNHK 250352Z AUTO 09005KT 10SM CLR 18/16 A3014 RMK AO2 SLP206 T01780156 $
                 =
2016-09-24 22:52 METAR KNHK 250252Z AUTO 07005KT 10SM SCT065 18/16 A3013 RMK AO2 SLP204 T01830156
                 50011 $ =
2016-09-24 21:52 METAR KNHK 250152Z AUTO 08006KT 10SM OVC060 19/16 A3014 RMK AO2 SLP205 T01890156
                 $ =
2016-09-24 21:29 METAR KNHK 250129Z AUTO 07005KT 10SM SCT017 SCT036 OVC060 19/16 A3013 RMK AO2
                 T01890156 $ =
2016-09-24 20:52 METAR KNHK 250052Z AUTO 06008KT 10SM SCT016 BKN027 OVC037 19/16 A3012 RMK AO2
                 CIG 015 RY24 SLP200 T01940156 $ =
2016-09-24 20:27 METAR KNHK 250027Z AUTO 06006KT 10SM FEW016 BKN026 OVC031 19/16 A3011 RMK AO2
                 T01940161 $ =
2016-09-24 19:52 METAR KNHK 242352Z AUTO 05008KT 10SM FEW015 BKN033 OVC065 20/16 A3010 RMK AO2
                 CIG 020 RY24 SLP193 T02000161 10228 20200 51013 $ =
2016-09-24 19:30 METAR KNHK 242330Z AUTO 05007KT 10SM SCT018 OVC030 20/17 A3010 RMK AO2 T02000167
                 $ =
2016-09-24 18:52 METAR KNHK 242252Z AUTO 06006KT 10SM OVC018 21/17 A3009 RMK AO2 SLP191 T02060167
                 $ =
2016-09-24 17:52 METAR KNHK 242152Z 07006KT 10SM FEW014 BKN019 OVC027 21/17 A3008 RMK AO2 SLP184
                 T02110172 $ =
2016-09-24 16:52 METAR KNHK 242052Z 04006KT 10SM FEW014 BKN021 OVC030 22/17 A3006 RMK AO2 SLP181
                 T02170172 56003 $ =
2016-09-24 15:52 METAR KNHK 241952Z 04008KT 10SM FEW015 BKN027 OVC100 22/17 A3007 RMK AO2 SLP182
                 T02220172 $ =
2016-09-24 15:35 METAR KNHK 241935Z 03009KT 10SM SCT014 BKN027 OVC100 23/18 A3007 RMK AO2
                 T02280178 $ =
2016-09-24 14:52 METAR KNHK 241852Z 02011KT 9SM OVC012 21/18 A3007 RMK AO2 SLP182 T02110178 $ =
2016-09-24 14:22 METAR KNHK 241822Z 03008KT 8SM OVC014 21/18 A3007 RMK AO2 T02110178 $ =
2016-09-24 13:52 METAR KNHK 241752Z 36008KT 9SM OVC015 22/18 A3007 RMK AO2 SLP184 T02170178 10244
                 20211 $ =
2016-09-24 13:31 METAR KNHK 241731Z 01008KT 9SM OVC015 22/18 A3008 RMK AO2 T02220178 $ =

Support USWX by starting your Amazon purchase here.